<?xml version="1.0" encoding="UTF-8" standalone="no" ?>
<gpx xmlns="http://www.topografix.com/GPX/1/1" xmlns:xsi="http://www.w3.org/2001/XMLSchema-instance" xsi:schemaLocation="http://www.topografix.com/GPX/1/1 http://www.topografix.com/GPX/1/1/gpx.xsd" version="1.1" creator="VisuGPX - https://www.visugpx.com">
  <metadata>
    <name>mousterlin - benodet - mousterlin</name>
    <desc><![CDATA[Parcours m�langeant bord de mer et campagne, le tout dans un d�cor fabuleux. ]]></desc>
  </metadata>
  <trk>
    <name><![CDATA[mousterlin - benodet - mousterlin]]></name>
    <trkseg>
      <trkpt lat="47.85218" lon="-4.03567">
        <ele>4.290969</ele>
        <time>2022-06-06T13:51:06.625Z</time>
      </trkpt>
      <trkpt lat="47.85153" lon="-4.03586">
        <ele>4.290969</ele>
        <time>2022-06-06T13:51:34.906Z</time>
      </trkpt>
      <trkpt lat="47.85088" lon="-4.03605">
        <ele>4.238779</ele>
        <time>2022-06-06T13:52:03.194Z</time>
      </trkpt>
      <trkpt lat="47.85103" lon="-4.03706">
        <ele>4.152746</ele>
        <time>2022-06-06T13:52:25.148Z</time>
      </trkpt>
      <trkpt lat="47.85098" lon="-4.03724">
        <ele>4.136642</ele>
        <time>2022-06-06T13:52:29.239Z</time>
      </trkpt>
      <trkpt lat="47.85047" lon="-4.03728">
        <ele>4.073439</ele>
        <time>2022-06-06T13:52:45.107Z</time>
      </trkpt>
      <trkpt lat="47.84959" lon="-4.03721">
        <ele>3.811805</ele>
        <time>2022-06-06T13:53:12.835Z</time>
      </trkpt>
      <trkpt lat="47.84923" lon="-4.03711">
        <ele>3.701327</ele>
        <time>2022-06-06T13:53:24.056Z</time>
      </trkpt>
      <trkpt lat="47.84891" lon="-4.03694">
        <ele>3.597866</ele>
        <time>2022-06-06T13:53:34.386Z</time>
      </trkpt>
      <trkpt lat="47.84819" lon="-4.03634">
        <ele>3.223387</ele>
        <time>2022-06-06T13:53:59.517Z</time>
      </trkpt>
      <trkpt lat="47.84789" lon="-4.036">
        <ele>3.030581</ele>
        <time>2022-06-06T13:54:10.830Z</time>
      </trkpt>
      <trkpt lat="47.8478" lon="-4.036">
        <ele>2.986209</ele>
        <time>2022-06-06T13:54:13.413Z</time>
      </trkpt>
      <trkpt lat="47.84578" lon="-4.03852">
        <ele>1.692158</ele>
        <time>2022-06-06T13:55:00.426Z</time>
      </trkpt>
      <trkpt lat="47.84475" lon="-4.03981">
        <ele>1.553934</ele>
        <time>2022-06-06T13:55:25.543Z</time>
      </trkpt>
      <trkpt lat="47.84458" lon="-4.04021">
        <ele>1.521573</ele>
        <time>2022-06-06T13:55:31.915Z</time>
      </trkpt>
      <trkpt lat="47.84455" lon="-4.04038">
        <ele>1.565519</ele>
        <time>2022-06-06T13:55:34.334Z</time>
      </trkpt>
      <trkpt lat="47.8446" lon="-4.04058">
        <ele>1.676428</ele>
        <time>2022-06-06T13:55:37.531Z</time>
      </trkpt>
      <trkpt lat="47.84511" lon="-4.0413">
        <ele>2.22905</ele>
        <time>2022-06-06T13:55:53.775Z</time>
      </trkpt>
      <trkpt lat="47.84542" lon="-4.04142">
        <ele>2.47757</ele>
        <time>2022-06-06T13:56:01.359Z</time>
      </trkpt>
      <trkpt lat="47.84593" lon="-4.0414">
        <ele>2.871482</ele>
        <time>2022-06-06T13:56:13.785Z</time>
      </trkpt>
      <trkpt lat="47.84596" lon="-4.04134">
        <ele>2.913086</ele>
        <time>2022-06-06T13:56:15.026Z</time>
      </trkpt>
      <trkpt lat="47.84646" lon="-4.04123">
        <ele>3.31843</ele>
        <time>2022-06-06T13:56:27.316Z</time>
      </trkpt>
      <trkpt lat="47.84659" lon="-4.04143">
        <ele>3.469949</ele>
        <time>2022-06-06T13:56:34.368Z</time>
      </trkpt>
      <trkpt lat="47.84677" lon="-4.0417">
        <ele>3.676671</ele>
        <time>2022-06-06T13:56:43.925Z</time>
      </trkpt>
      <trkpt lat="47.84793" lon="-4.04345">
        <ele>4.552594</ele>
        <time>2022-06-06T13:57:40.688Z</time>
      </trkpt>
      <trkpt lat="47.84922" lon="-4.04497">
        <ele>4.677398</ele>
        <time>2022-06-06T13:58:32.897Z</time>
      </trkpt>
      <trkpt lat="47.8494" lon="-4.04499">
        <ele>4.646296</ele>
        <time>2022-06-06T13:58:38.370Z</time>
      </trkpt>
      <trkpt lat="47.84949" lon="-4.04497">
        <ele>4.630094</ele>
        <time>2022-06-06T13:58:41.168Z</time>
      </trkpt>
      <trkpt lat="47.84952" lon="-4.04495">
        <ele>4.623747</ele>
        <time>2022-06-06T13:58:42.280Z</time>
      </trkpt>
      <trkpt lat="47.84966" lon="-4.04498">
        <ele>4.598924</ele>
        <time>2022-06-06T13:58:46.634Z</time>
      </trkpt>
      <trkpt lat="47.85002" lon="-4.04537">
        <ele>4.520508</ele>
        <time>2022-06-06T13:59:00.243Z</time>
      </trkpt>
      <trkpt lat="47.85002" lon="-4.04537">
        <ele>4.520508</ele>
        <time>2022-06-06T13:59:00.253Z</time>
      </trkpt>
      <trkpt lat="47.85002" lon="-4.04537">
        <ele>4.520508</ele>
        <time>2022-06-06T13:59:00.258Z</time>
      </trkpt>
      <trkpt lat="47.85023" lon="-4.04559">
        <ele>4.474664</ele>
        <time>2022-06-06T13:59:06.724Z</time>
      </trkpt>
      <trkpt lat="47.85027" lon="-4.04564">
        <ele>4.459998</ele>
        <time>2022-06-06T13:59:08.409Z</time>
      </trkpt>
      <trkpt lat="47.85042" lon="-4.0456">
        <ele>4.413184</ele>
        <time>2022-06-06T13:59:12.131Z</time>
      </trkpt>
      <trkpt lat="47.8508" lon="-4.04608">
        <ele>4.260954</ele>
        <time>2022-06-06T13:59:24.391Z</time>
      </trkpt>
      <trkpt lat="47.85105" lon="-4.04638">
        <ele>4.164126</ele>
        <time>2022-06-06T13:59:32.030Z</time>
      </trkpt>
      <trkpt lat="47.85108" lon="-4.04644">
        <ele>4.149255</ele>
        <time>2022-06-06T13:59:33.263Z</time>
      </trkpt>
      <trkpt lat="47.85112" lon="-4.04653">
        <ele>4.127054</ele>
        <time>2022-06-06T13:59:35.013Z</time>
      </trkpt>
      <trkpt lat="47.85121" lon="-4.04661">
        <ele>4.095672</ele>
        <time>2022-06-06T13:59:37.461Z</time>
      </trkpt>
      <trkpt lat="47.85121" lon="-4.0469">
        <ele>4.035721</ele>
        <time>2022-06-06T13:59:43.586Z</time>
      </trkpt>
      <trkpt lat="47.85287" lon="-4.04943">
        <ele>3.546927</ele>
        <time>2022-06-06T14:00:57.232Z</time>
      </trkpt>
      <trkpt lat="47.85366" lon="-4.05073">
        <ele>3.708183</ele>
        <time>2022-06-06T14:01:36.079Z</time>
      </trkpt>
      <trkpt lat="47.85434" lon="-4.05218">
        <ele>3.912495</ele>
        <time>2022-06-06T14:02:14.934Z</time>
      </trkpt>
      <trkpt lat="47.85454" lon="-4.05167">
        <ele>3.987855</ele>
        <time>2022-06-06T14:02:27.687Z</time>
      </trkpt>
      <trkpt lat="47.85459" lon="-4.05158">
        <ele>4.002922</ele>
        <time>2022-06-06T14:02:30.159Z</time>
      </trkpt>
      <trkpt lat="47.85473" lon="-4.05149">
        <ele>4.032452</ele>
        <time>2022-06-06T14:02:35.189Z</time>
      </trkpt>
      <trkpt lat="47.85516" lon="-4.05141">
        <ele>4.134747</ele>
        <time>2022-06-06T14:02:44.434Z</time>
      </trkpt>
      <trkpt lat="47.85569" lon="-4.05136">
        <ele>4.538242</ele>
        <time>2022-06-06T14:02:55.558Z</time>
      </trkpt>
      <trkpt lat="47.85597" lon="-4.05116">
        <ele>4.781103</ele>
        <time>2022-06-06T14:03:02.758Z</time>
      </trkpt>
      <trkpt lat="47.8568" lon="-4.05031">
        <ele>5.584789</ele>
        <time>2022-06-06T14:03:28.867Z</time>
      </trkpt>
      <trkpt lat="47.85692" lon="-4.05027">
        <ele>5.729391</ele>
        <time>2022-06-06T14:03:32.254Z</time>
      </trkpt>
      <trkpt lat="47.85729" lon="-4.0504">
        <ele>6.168585</ele>
        <time>2022-06-06T14:03:42.827Z</time>
      </trkpt>
      <trkpt lat="47.85818" lon="-4.05113">
        <ele>7.327953</ele>
        <time>2022-06-06T14:04:09.363Z</time>
      </trkpt>
      <trkpt lat="47.85842" lon="-4.0513">
        <ele>7.580731</ele>
        <time>2022-06-06T14:04:15.885Z</time>
      </trkpt>
      <trkpt lat="47.85883" lon="-4.05135">
        <ele>7.700536</ele>
        <time>2022-06-06T14:04:25.661Z</time>
      </trkpt>
      <trkpt lat="47.85973" lon="-4.05146">
        <ele>7.959121</ele>
        <time>2022-06-06T14:04:45.058Z</time>
      </trkpt>
      <trkpt lat="47.86053" lon="-4.05227">
        <ele>7.956215</ele>
        <time>2022-06-06T14:05:14.993Z</time>
      </trkpt>
      <trkpt lat="47.86074" lon="-4.05232">
        <ele>7.907423</ele>
        <time>2022-06-06T14:05:21.780Z</time>
      </trkpt>
      <trkpt lat="47.86194" lon="-4.05358">
        <ele>7.549771</ele>
        <time>2022-06-06T14:06:07.335Z</time>
      </trkpt>
      <trkpt lat="47.86217" lon="-4.05376">
        <ele>7.470347</ele>
        <time>2022-06-06T14:06:15.517Z</time>
      </trkpt>
      <trkpt lat="47.86208" lon="-4.05407">
        <ele>7.402699</ele>
        <time>2022-06-06T14:06:22.492Z</time>
      </trkpt>
      <trkpt lat="47.86219" lon="-4.05537">
        <ele>7.143182</ele>
        <time>2022-06-06T14:06:49.607Z</time>
      </trkpt>
      <trkpt lat="47.86225" lon="-4.0556">
        <ele>7.136368</ele>
        <time>2022-06-06T14:06:54.862Z</time>
      </trkpt>
      <trkpt lat="47.86212" lon="-4.05585">
        <ele>7.127701</ele>
        <time>2022-06-06T14:07:01.581Z</time>
      </trkpt>
      <trkpt lat="47.86204" lon="-4.05618">
        <ele>7.118262</ele>
        <time>2022-06-06T14:07:08.927Z</time>
      </trkpt>
      <trkpt lat="47.86209" lon="-4.05649">
        <ele>7.109721</ele>
        <time>2022-06-06T14:07:15.549Z</time>
      </trkpt>
      <trkpt lat="47.86294" lon="-4.05776">
        <ele>7.201856</ele>
        <time>2022-06-06T14:07:54.405Z</time>
      </trkpt>
      <trkpt lat="47.86305" lon="-4.05809">
        <ele>7.334773</ele>
        <time>2022-06-06T14:08:02.829Z</time>
      </trkpt>
      <trkpt lat="47.86388" lon="-4.05768">
        <ele>7.798485</ele>
        <time>2022-06-06T14:08:34.028Z</time>
      </trkpt>
      <trkpt lat="47.86396" lon="-4.05825">
        <ele>8.008353</ele>
        <time>2022-06-06T14:08:47.948Z</time>
      </trkpt>
      <trkpt lat="47.86424" lon="-4.05916">
        <ele>7.818428</ele>
        <time>2022-06-06T14:09:10.349Z</time>
      </trkpt>
      <trkpt lat="47.86351" lon="-4.05989">
        <ele>7.528082</ele>
        <time>2022-06-06T14:09:26.135Z</time>
      </trkpt>
      <trkpt lat="47.86271" lon="-4.06057">
        <ele>6.527419</ele>
        <time>2022-06-06T14:09:41.172Z</time>
      </trkpt>
      <trkpt lat="47.86112" lon="-4.06191">
        <ele>4.215606</ele>
        <time>2022-06-06T14:10:10.439Z</time>
      </trkpt>
      <trkpt lat="47.86106" lon="-4.062">
        <ele>4.132016</ele>
        <time>2022-06-06T14:10:11.863Z</time>
      </trkpt>
      <trkpt lat="47.86113" lon="-4.06219">
        <ele>3.983419</ele>
        <time>2022-06-06T14:10:14.911Z</time>
      </trkpt>
      <trkpt lat="47.8609" lon="-4.06239">
        <ele>3.719836</ele>
        <time>2022-06-06T14:10:22.879Z</time>
      </trkpt>
      <trkpt lat="47.86099" lon="-4.06273">
        <ele>3.477555</ele>
        <time>2022-06-06T14:10:30.412Z</time>
      </trkpt>
      <trkpt lat="47.86115" lon="-4.06332">
        <ele>3.115826</ele>
        <time>2022-06-06T14:10:43.432Z</time>
      </trkpt>
      <trkpt lat="47.86142" lon="-4.06337">
        <ele>3.129197</ele>
        <time>2022-06-06T14:10:51.991Z</time>
      </trkpt>
      <trkpt lat="47.86148" lon="-4.06346">
        <ele>3.133305</ele>
        <time>2022-06-06T14:10:54.578Z</time>
      </trkpt>
      <trkpt lat="47.86195" lon="-4.06322">
        <ele>3.15758</ele>
        <time>2022-06-06T14:11:10.229Z</time>
      </trkpt>
      <trkpt lat="47.86236" lon="-4.06313">
        <ele>3.177711</ele>
        <time>2022-06-06T14:11:23.809Z</time>
      </trkpt>
      <trkpt lat="47.86227" lon="-4.06401">
        <ele>3.286839</ele>
        <time>2022-06-06T14:11:43.831Z</time>
      </trkpt>
      <trkpt lat="47.86229" lon="-4.06423">
        <ele>3.393717</ele>
        <time>2022-06-06T14:11:48.992Z</time>
      </trkpt>
      <trkpt lat="47.86223" lon="-4.06464">
        <ele>3.594809</ele>
        <time>2022-06-06T14:11:58.889Z</time>
      </trkpt>
      <trkpt lat="47.8623" lon="-4.06479">
        <ele>3.678056</ele>
        <time>2022-06-06T14:12:03.046Z</time>
      </trkpt>
      <trkpt lat="47.86243" lon="-4.06481">
        <ele>3.772051</ele>
        <time>2022-06-06T14:12:07.805Z</time>
      </trkpt>
      <trkpt lat="47.8626" lon="-4.0647">
        <ele>3.90355</ele>
        <time>2022-06-06T14:12:14.359Z</time>
      </trkpt>
      <trkpt lat="47.86296" lon="-4.06467">
        <ele>4.163202</ele>
        <time>2022-06-06T14:12:27.473Z</time>
      </trkpt>
      <trkpt lat="47.86375" lon="-4.06422">
        <ele>4.793452</ele>
        <time>2022-06-06T14:12:57.709Z</time>
      </trkpt>
      <trkpt lat="47.86421" lon="-4.06385">
        <ele>5.21189</ele>
        <time>2022-06-06T14:13:16.910Z</time>
      </trkpt>
      <trkpt lat="47.8644" lon="-4.06354">
        <ele>5.434806</ele>
        <time>2022-06-06T14:13:27.031Z</time>
      </trkpt>
      <trkpt lat="47.86448" lon="-4.06357">
        <ele>5.500683</ele>
        <time>2022-06-06T14:13:29.973Z</time>
      </trkpt>
      <trkpt lat="47.86459" lon="-4.06332">
        <ele>5.662038</ele>
        <time>2022-06-06T14:13:37.238Z</time>
      </trkpt>
      <trkpt lat="47.8647" lon="-4.0632">
        <ele>5.772505</ele>
        <time>2022-06-06T14:13:42.143Z</time>
      </trkpt>
      <trkpt lat="47.86507" lon="-4.06307">
        <ele>5.986935</ele>
        <time>2022-06-06T14:13:55.803Z</time>
      </trkpt>
      <trkpt lat="47.8658" lon="-4.06195">
        <ele>6.397276</ele>
        <time>2022-06-06T14:14:30.167Z</time>
      </trkpt>
      <trkpt lat="47.86594" lon="-4.06186">
        <ele>6.453709</ele>
        <time>2022-06-06T14:14:35.469Z</time>
      </trkpt>
      <trkpt lat="47.86605" lon="-4.062">
        <ele>6.509677</ele>
        <time>2022-06-06T14:14:40.106Z</time>
      </trkpt>
      <trkpt lat="47.86584" lon="-4.06249">
        <ele>6.636065</ele>
        <time>2022-06-06T14:14:53.043Z</time>
      </trkpt>
      <trkpt lat="47.86575" lon="-4.06284">
        <ele>6.6891</ele>
        <time>2022-06-06T14:15:01.843Z</time>
      </trkpt>
      <trkpt lat="47.86579" lon="-4.06314">
        <ele>6.733333</ele>
        <time>2022-06-06T14:15:09.004Z</time>
      </trkpt>
      <trkpt lat="47.86595" lon="-4.06325">
        <ele>6.769484</ele>
        <time>2022-06-06T14:15:15.168Z</time>
      </trkpt>
      <trkpt lat="47.86598" lon="-4.06328">
        <ele>6.776361</ele>
        <time>2022-06-06T14:15:16.253Z</time>
      </trkpt>
      <trkpt lat="47.86629" lon="-4.06339">
        <ele>6.844837</ele>
        <time>2022-06-06T14:15:26.888Z</time>
      </trkpt>
      <trkpt lat="47.86659" lon="-4.06337">
        <ele>6.908704</ele>
        <time>2022-06-06T14:15:36.059Z</time>
      </trkpt>
      <trkpt lat="47.86737" lon="-4.06313">
        <ele>6.863115</ele>
        <time>2022-06-06T14:16:01.773Z</time>
      </trkpt>
      <trkpt lat="47.86753" lon="-4.06357">
        <ele>6.767233</ele>
        <time>2022-06-06T14:16:12.465Z</time>
      </trkpt>
      <trkpt lat="47.86754" lon="-4.06362">
        <ele>6.757761</ele>
        <time>2022-06-06T14:16:13.543Z</time>
      </trkpt>
      <trkpt lat="47.86764" lon="-4.06389">
        <ele>6.699552</ele>
        <time>2022-06-06T14:16:19.771Z</time>
      </trkpt>
      <trkpt lat="47.86741" lon="-4.06388">
        <ele>6.632891</ele>
        <time>2022-06-06T14:16:27.088Z</time>
      </trkpt>
      <trkpt lat="47.86676" lon="-4.06392">
        <ele>6.407619</ele>
        <time>2022-06-06T14:16:46.421Z</time>
      </trkpt>
      <trkpt lat="47.86632" lon="-4.06415">
        <ele>6.026187</ele>
        <time>2022-06-06T14:17:00.086Z</time>
      </trkpt>
      <trkpt lat="47.86588" lon="-4.06422">
        <ele>5.668201</ele>
        <time>2022-06-06T14:17:13.236Z</time>
      </trkpt>
      <trkpt lat="47.86585" lon="-4.06446">
        <ele>5.535899</ele>
        <time>2022-06-06T14:17:18.137Z</time>
      </trkpt>
      <trkpt lat="47.86549" lon="-4.06429">
        <ele>5.225708</ele>
        <time>2022-06-06T14:17:29.481Z</time>
      </trkpt>
      <trkpt lat="47.86499" lon="-4.06438">
        <ele>4.795902</ele>
        <time>2022-06-06T14:17:44.322Z</time>
      </trkpt>
      <trkpt lat="47.86472" lon="-4.06457">
        <ele>4.540996</ele>
        <time>2022-06-06T14:17:52.799Z</time>
      </trkpt>
      <trkpt lat="47.86446" lon="-4.06478">
        <ele>4.278586</ele>
        <time>2022-06-06T14:18:01.578Z</time>
      </trkpt>
      <trkpt lat="47.86414" lon="-4.0652">
        <ele>3.907361</ele>
        <time>2022-06-06T14:18:13.962Z</time>
      </trkpt>
      <trkpt lat="47.8639" lon="-4.0656">
        <ele>3.585618</ele>
        <time>2022-06-06T14:18:24.838Z</time>
      </trkpt>
      <trkpt lat="47.86381" lon="-4.06598">
        <ele>3.441232</ele>
        <time>2022-06-06T14:18:32.839Z</time>
      </trkpt>
      <trkpt lat="47.86365" lon="-4.06622">
        <ele>3.472279</ele>
        <time>2022-06-06T14:18:39.487Z</time>
      </trkpt>
      <trkpt lat="47.86343" lon="-4.06648">
        <ele>3.511981</ele>
        <time>2022-06-06T14:18:48.008Z</time>
      </trkpt>
      <trkpt lat="47.86319" lon="-4.06663">
        <ele>3.549004</ele>
        <time>2022-06-06T14:18:56.326Z</time>
      </trkpt>
      <trkpt lat="47.86309" lon="-4.06692">
        <ele>3.579539</ele>
        <time>2022-06-06T14:19:03.184Z</time>
      </trkpt>
      <trkpt lat="47.86308" lon="-4.06693">
        <ele>3.580634</ele>
        <time>2022-06-06T14:19:03.424Z</time>
      </trkpt>
      <trkpt lat="47.86324" lon="-4.06746">
        <ele>3.635219</ele>
        <time>2022-06-06T14:19:17.034Z</time>
      </trkpt>
      <trkpt lat="47.8634" lon="-4.06758">
        <ele>3.660719</ele>
        <time>2022-06-06T14:19:23.929Z</time>
      </trkpt>
      <trkpt lat="47.8635" lon="-4.06777">
        <ele>3.709125</ele>
        <time>2022-06-06T14:19:29.776Z</time>
      </trkpt>
      <trkpt lat="47.86386" lon="-4.06772">
        <ele>4.28349</ele>
        <time>2022-06-06T14:19:43.795Z</time>
      </trkpt>
      <trkpt lat="47.8639" lon="-4.06785">
        <ele>4.432868</ele>
        <time>2022-06-06T14:19:47.838Z</time>
      </trkpt>
      <trkpt lat="47.86424" lon="-4.06783">
        <ele>4.976432</ele>
        <time>2022-06-06T14:19:57.273Z</time>
      </trkpt>
      <trkpt lat="47.865" lon="-4.06787">
        <ele>6.174213</ele>
        <time>2022-06-06T14:20:18.595Z</time>
      </trkpt>
      <trkpt lat="47.86569" lon="-4.06841">
        <ele>7.144425</ele>
        <time>2022-06-06T14:20:40.123Z</time>
      </trkpt>
      <trkpt lat="47.8659" lon="-4.06841">
        <ele>7.388408</ele>
        <time>2022-06-06T14:20:45.459Z</time>
      </trkpt>
      <trkpt lat="47.86632" lon="-4.06828">
        <ele>7.864581</ele>
        <time>2022-06-06T14:20:55.434Z</time>
      </trkpt>
      <trkpt lat="47.86655" lon="-4.06815">
        <ele>8.139417</ele>
        <time>2022-06-06T14:21:01.265Z</time>
      </trkpt>
      <trkpt lat="47.86726" lon="-4.06711">
        <ele>8.999393</ele>
        <time>2022-06-06T14:21:23.523Z</time>
      </trkpt>
      <trkpt lat="47.8677" lon="-4.06663">
        <ele>9.398516</ele>
        <time>2022-06-06T14:21:35.800Z</time>
      </trkpt>
      <trkpt lat="47.86927" lon="-4.06525">
        <ele>10.932059</ele>
        <time>2022-06-06T14:22:18.542Z</time>
      </trkpt>
      <trkpt lat="47.87046" lon="-4.06472">
        <ele>11.874926</ele>
        <time>2022-06-06T14:22:48.699Z</time>
      </trkpt>
      <trkpt lat="47.87083" lon="-4.06556">
        <ele>12.298453</ele>
        <time>2022-06-06T14:23:03.673Z</time>
      </trkpt>
      <trkpt lat="47.87118" lon="-4.06656">
        <ele>12.762121</ele>
        <time>2022-06-06T14:23:20.535Z</time>
      </trkpt>
      <trkpt lat="47.87132" lon="-4.06708">
        <ele>12.981462</ele>
        <time>2022-06-06T14:23:28.858Z</time>
      </trkpt>
      <trkpt lat="47.87134" lon="-4.06715">
        <ele>13.009971</ele>
        <time>2022-06-06T14:23:29.881Z</time>
      </trkpt>
      <trkpt lat="47.87188" lon="-4.06879">
        <ele>13.82712</ele>
        <time>2022-06-06T14:23:58.322Z</time>
      </trkpt>
      <trkpt lat="47.87225" lon="-4.06964">
        <ele>14.73733</ele>
        <time>2022-06-06T14:24:16.502Z</time>
      </trkpt>
      <trkpt lat="47.87261" lon="-4.07015">
        <ele>15.392325</ele>
        <time>2022-06-06T14:24:30.284Z</time>
      </trkpt>
      <trkpt lat="47.87267" lon="-4.07021">
        <ele>15.491314</ele>
        <time>2022-06-06T14:24:32.284Z</time>
      </trkpt>
      <trkpt lat="47.87283" lon="-4.07036">
        <ele>15.743645</ele>
        <time>2022-06-06T14:24:37.542Z</time>
      </trkpt>
      <trkpt lat="47.87303" lon="-4.07053">
        <ele>16.041419</ele>
        <time>2022-06-06T14:24:43.877Z</time>
      </trkpt>
      <trkpt lat="47.87399" lon="-4.07113">
        <ele>17.606367</ele>
        <time>2022-06-06T14:25:14.531Z</time>
      </trkpt>
      <trkpt lat="47.87557" lon="-4.07218">
        <ele>19.455904</ele>
        <time>2022-06-06T14:25:58.822Z</time>
      </trkpt>
      <trkpt lat="47.87574" lon="-4.07234">
        <ele>19.612962</ele>
        <time>2022-06-06T14:26:03.652Z</time>
      </trkpt>
      <trkpt lat="47.87581" lon="-4.07243">
        <ele>19.681867</ele>
        <time>2022-06-06T14:26:05.807Z</time>
      </trkpt>
      <trkpt lat="47.87626" lon="-4.07309">
        <ele>19.998594</ele>
        <time>2022-06-06T14:26:19.856Z</time>
      </trkpt>
      <trkpt lat="47.87632" lon="-4.07366">
        <ele>19.725665</ele>
        <time>2022-06-06T14:26:27.832Z</time>
      </trkpt>
      <trkpt lat="47.87631" lon="-4.0741">
        <ele>19.519345</ele>
        <time>2022-06-06T14:26:33.498Z</time>
      </trkpt>
      <trkpt lat="47.87595" lon="-4.07527">
        <ele>18.917908</ele>
        <time>2022-06-06T14:26:49.098Z</time>
      </trkpt>
      <trkpt lat="47.87533" lon="-4.07647">
        <ele>16.644545</ele>
        <time>2022-06-06T14:27:05.414Z</time>
      </trkpt>
      <trkpt lat="47.87527" lon="-4.07666">
        <ele>16.292747</ele>
        <time>2022-06-06T14:27:07.484Z</time>
      </trkpt>
      <trkpt lat="47.87527" lon="-4.07699">
        <ele>15.744294</ele>
        <time>2022-06-06T14:27:11.161Z</time>
      </trkpt>
      <trkpt lat="47.87545" lon="-4.07839">
        <ele>13.362332</ele>
        <time>2022-06-06T14:27:25.942Z</time>
      </trkpt>
      <trkpt lat="47.87488" lon="-4.07818">
        <ele>11.876876</ele>
        <time>2022-06-06T14:27:35.262Z</time>
      </trkpt>
      <trkpt lat="47.87445" lon="-4.07814">
        <ele>10.80184</ele>
        <time>2022-06-06T14:27:42.048Z</time>
      </trkpt>
      <trkpt lat="47.87444" lon="-4.07828">
        <ele>10.559728</ele>
        <time>2022-06-06T14:27:43.640Z</time>
      </trkpt>
      <trkpt lat="47.87408" lon="-4.07841">
        <ele>9.626621</ele>
        <time>2022-06-06T14:27:50.236Z</time>
      </trkpt>
      <trkpt lat="47.8735" lon="-4.07906">
        <ele>7.971546</ele>
        <time>2022-06-06T14:28:02.834Z</time>
      </trkpt>
      <trkpt lat="47.8738" lon="-4.07977">
        <ele>6.684323</ele>
        <time>2022-06-06T14:28:12.221Z</time>
      </trkpt>
      <trkpt lat="47.87384" lon="-4.07988">
        <ele>6.491236</ele>
        <time>2022-06-06T14:28:14.481Z</time>
      </trkpt>
      <trkpt lat="47.8739" lon="-4.08001">
        <ele>6.251912</ele>
        <time>2022-06-06T14:28:16.296Z</time>
      </trkpt>
      <trkpt lat="47.87333" lon="-4.08052">
        <ele>5.129938</ele>
        <time>2022-06-06T14:28:34.050Z</time>
      </trkpt>
      <trkpt lat="47.87295" lon="-4.08104">
        <ele>4.430878</ele>
        <time>2022-06-06T14:28:48.519Z</time>
      </trkpt>
      <trkpt lat="47.87292" lon="-4.0811">
        <ele>4.359312</ele>
        <time>2022-06-06T14:28:50.008Z</time>
      </trkpt>
      <trkpt lat="47.87271" lon="-4.0815">
        <ele>3.906734</ele>
        <time>2022-06-06T14:28:59.970Z</time>
      </trkpt>
      <trkpt lat="47.87271" lon="-4.08173">
        <ele>3.695618</ele>
        <time>2022-06-06T14:29:04.548Z</time>
      </trkpt>
      <trkpt lat="47.87278" lon="-4.08197">
        <ele>3.455747</ele>
        <time>2022-06-06T14:29:09.975Z</time>
      </trkpt>
      <trkpt lat="47.87287" lon="-4.08207">
        <ele>3.30157</ele>
        <time>2022-06-06T14:29:13.429Z</time>
      </trkpt>
      <trkpt lat="47.87363" lon="-4.0823">
        <ele>3.361728</ele>
        <time>2022-06-06T14:29:37.734Z</time>
      </trkpt>
      <trkpt lat="47.87366" lon="-4.08234">
        <ele>3.368443</ele>
        <time>2022-06-06T14:29:38.724Z</time>
      </trkpt>
      <trkpt lat="47.87375" lon="-4.08344">
        <ele>3.476415</ele>
        <time>2022-06-06T14:29:56.217Z</time>
      </trkpt>
      <trkpt lat="47.87344" lon="-4.08387">
        <ele>3.587455</ele>
        <time>2022-06-06T14:30:06.096Z</time>
      </trkpt>
      <trkpt lat="47.87327" lon="-4.08422">
        <ele>3.732263</ele>
        <time>2022-06-06T14:30:12.907Z</time>
      </trkpt>
      <trkpt lat="47.87294" lon="-4.08431">
        <ele>3.899999</ele>
        <time>2022-06-06T14:30:20.656Z</time>
      </trkpt>
      <trkpt lat="47.87239" lon="-4.08407">
        <ele>4.183996</ele>
        <time>2022-06-06T14:30:34.294Z</time>
      </trkpt>
      <trkpt lat="47.87223" lon="-4.08388">
        <ele>4.287407</ele>
        <time>2022-06-06T14:30:39.355Z</time>
      </trkpt>
      <trkpt lat="47.87185" lon="-4.08306">
        <ele>4.583365</ele>
        <time>2022-06-06T14:30:55.916Z</time>
      </trkpt>
      <trkpt lat="47.87125" lon="-4.08289">
        <ele>4.84014</ele>
        <time>2022-06-06T14:31:11.165Z</time>
      </trkpt>
      <trkpt lat="47.87117" lon="-4.08286">
        <ele>4.874292</ele>
        <time>2022-06-06T14:31:12.899Z</time>
      </trkpt>
      <trkpt lat="47.87075" lon="-4.08272">
        <ele>5.056606</ele>
        <time>2022-06-06T14:31:22.036Z</time>
      </trkpt>
      <trkpt lat="47.86996" lon="-4.0826">
        <ele>4.965933</ele>
        <time>2022-06-06T14:31:37.858Z</time>
      </trkpt>
      <trkpt lat="47.87001" lon="-4.08209">
        <ele>4.83917</ele>
        <time>2022-06-06T14:31:45.025Z</time>
      </trkpt>
      <trkpt lat="47.86999" lon="-4.0815">
        <ele>4.692511</ele>
        <time>2022-06-06T14:31:53.119Z</time>
      </trkpt>
      <trkpt lat="47.86984" lon="-4.08092">
        <ele>4.53838</ele>
        <time>2022-06-06T14:32:01.374Z</time>
      </trkpt>
      <trkpt lat="47.86966" lon="-4.08081">
        <ele>4.443331</ele>
        <time>2022-06-06T14:32:05.140Z</time>
      </trkpt>
      <trkpt lat="47.86929" lon="-4.08074">
        <ele>4.206849</ele>
        <time>2022-06-06T14:32:12.157Z</time>
      </trkpt>
      <trkpt lat="47.86885" lon="-4.08045">
        <ele>3.903582</ele>
        <time>2022-06-06T14:32:21.417Z</time>
      </trkpt>
      <trkpt lat="47.86869" lon="-4.08023">
        <ele>3.761299</ele>
        <time>2022-06-06T14:32:25.962Z</time>
      </trkpt>
      <trkpt lat="47.86781" lon="-4.07941">
        <ele>3.238413</ele>
        <time>2022-06-06T14:32:46.741Z</time>
      </trkpt>
      <trkpt lat="47.86739" lon="-4.0786">
        <ele>3.036171</ele>
        <time>2022-06-06T14:33:00.160Z</time>
      </trkpt>
      <trkpt lat="47.86723" lon="-4.07791">
        <ele>2.891699</ele>
        <time>2022-06-06T14:33:10.248Z</time>
      </trkpt>
      <trkpt lat="47.86718" lon="-4.07783">
        <ele>2.87098</ele>
        <time>2022-06-06T14:33:11.818Z</time>
      </trkpt>
      <trkpt lat="47.86718" lon="-4.07783">
        <ele>2.87098</ele>
        <time>2022-06-06T14:33:11.822Z</time>
      </trkpt>
      <trkpt lat="47.86705" lon="-4.07777">
        <ele>2.830315</ele>
        <time>2022-06-06T14:33:15.217Z</time>
      </trkpt>
      <trkpt lat="47.86669" lon="-4.07779">
        <ele>3.396321</ele>
        <time>2022-06-06T14:33:24.642Z</time>
      </trkpt>
      <trkpt lat="47.86653" lon="-4.07788">
        <ele>3.678512</ele>
        <time>2022-06-06T14:33:29.362Z</time>
      </trkpt>
      <trkpt lat="47.86646" lon="-4.07794">
        <ele>3.8092</ele>
        <time>2022-06-06T14:33:31.526Z</time>
      </trkpt>
      <trkpt lat="47.8664" lon="-4.07799">
        <ele>3.914594</ele>
        <time>2022-06-06T14:33:33.384Z</time>
      </trkpt>
      <trkpt lat="47.86646" lon="-4.07869">
        <ele>4.699021</ele>
        <time>2022-06-06T14:33:46.760Z</time>
      </trkpt>
      <trkpt lat="47.86652" lon="-4.07982">
        <ele>5.97696</ele>
        <time>2022-06-06T14:34:09.984Z</time>
      </trkpt>
      <trkpt lat="47.86647" lon="-4.08044">
        <ele>6.779263</ele>
        <time>2022-06-06T14:34:24.327Z</time>
      </trkpt>
      <trkpt lat="47.8666" lon="-4.08153">
        <ele>8.195009</ele>
        <time>2022-06-06T14:34:48.115Z</time>
      </trkpt>
      <trkpt lat="47.86672" lon="-4.08196">
        <ele>8.789486</ele>
        <time>2022-06-06T14:34:56.304Z</time>
      </trkpt>
      <trkpt lat="47.86676" lon="-4.08239">
        <ele>9.139363</ele>
        <time>2022-06-06T14:35:02.729Z</time>
      </trkpt>
      <trkpt lat="47.86665" lon="-4.08371">
        <ele>7.954457</ele>
        <time>2022-06-06T14:35:18.003Z</time>
      </trkpt>
      <trkpt lat="47.8665" lon="-4.08471">
        <ele>7.042276</ele>
        <time>2022-06-06T14:35:28.509Z</time>
      </trkpt>
      <trkpt lat="47.8665" lon="-4.08471">
        <ele>7.042276</ele>
        <time>2022-06-06T14:35:28.517Z</time>
      </trkpt>
      <trkpt lat="47.86636" lon="-4.08473">
        <ele>6.851846</ele>
        <time>2022-06-06T14:35:30.746Z</time>
      </trkpt>
      <trkpt lat="47.8649" lon="-4.08432">
        <ele>3.933917</ele>
        <time>2022-06-06T14:35:54.122Z</time>
      </trkpt>
      <trkpt lat="47.86477" lon="-4.08525">
        <ele>3.739362</ele>
        <time>2022-06-06T14:36:14.874Z</time>
      </trkpt>
      <trkpt lat="47.86483" lon="-4.08548">
        <ele>3.971638</ele>
        <time>2022-06-06T14:36:20.671Z</time>
      </trkpt>
      <trkpt lat="47.86461" lon="-4.08603">
        <ele>4.583116</ele>
        <time>2022-06-06T14:36:37.121Z</time>
      </trkpt>
      <trkpt lat="47.8651" lon="-4.08637">
        <ele>5.345204</ele>
        <time>2022-06-06T14:37:00.095Z</time>
      </trkpt>
      <trkpt lat="47.86552" lon="-4.08655">
        <ele>5.990429</ele>
        <time>2022-06-06T14:37:19.862Z</time>
      </trkpt>
      <trkpt lat="47.86572" lon="-4.08643">
        <ele>6.351222</ele>
        <time>2022-06-06T14:37:29.936Z</time>
      </trkpt>
      <trkpt lat="47.86598" lon="-4.08645">
        <ele>6.770824</ele>
        <time>2022-06-06T14:37:40.882Z</time>
      </trkpt>
      <trkpt lat="47.86617" lon="-4.0868">
        <ele>7.282506</ele>
        <time>2022-06-06T14:37:55.591Z</time>
      </trkpt>
      <trkpt lat="47.8664" lon="-4.08708">
        <ele>7.768744</ele>
        <time>2022-06-06T14:38:07.777Z</time>
      </trkpt>
      <trkpt lat="47.86641" lon="-4.08724">
        <ele>7.948736</ele>
        <time>2022-06-06T14:38:11.311Z</time>
      </trkpt>
      <trkpt lat="47.86635" lon="-4.08745">
        <ele>8.202352</ele>
        <time>2022-06-06T14:38:17.127Z</time>
      </trkpt>
      <trkpt lat="47.86602" lon="-4.08794">
        <ele>8.760752</ele>
        <time>2022-06-06T14:38:26.568Z</time>
      </trkpt>
      <trkpt lat="47.8658" lon="-4.08819">
        <ele>8.481316</ele>
        <time>2022-06-06T14:38:32.137Z</time>
      </trkpt>
      <trkpt lat="47.86566" lon="-4.08818">
        <ele>8.342267</ele>
        <time>2022-06-06T14:38:34.535Z</time>
      </trkpt>
      <trkpt lat="47.86557" lon="-4.08835">
        <ele>8.1954</ele>
        <time>2022-06-06T14:38:37.397Z</time>
      </trkpt>
      <trkpt lat="47.86557" lon="-4.08835">
        <ele>8.1954</ele>
        <time>2022-06-06T14:38:37.400Z</time>
      </trkpt>
      <trkpt lat="47.86528" lon="-4.0892">
        <ele>7.551932</ele>
        <time>2022-06-06T14:38:48.790Z</time>
      </trkpt>
      <trkpt lat="47.86519" lon="-4.08934">
        <ele>7.422531</ele>
        <time>2022-06-06T14:38:50.910Z</time>
      </trkpt>
      <trkpt lat="47.86526" lon="-4.08939">
        <ele>7.341289</ele>
        <time>2022-06-06T14:38:52.254Z</time>
      </trkpt>
      <trkpt lat="47.86533" lon="-4.08984">
        <ele>7.034793</ele>
        <time>2022-06-06T14:38:57.181Z</time>
      </trkpt>
      <trkpt lat="47.8653" lon="-4.08985">
        <ele>7.005718</ele>
        <time>2022-06-06T14:38:57.793Z</time>
      </trkpt>
      <trkpt lat="47.86513" lon="-4.08991">
        <ele>6.837967</ele>
        <time>2022-06-06T14:39:01.463Z</time>
      </trkpt>
      <trkpt lat="47.86493" lon="-4.08984">
        <ele>6.642793</ele>
        <time>2022-06-06T14:39:06.085Z</time>
      </trkpt>
      <trkpt lat="47.86429" lon="-4.08923">
        <ele>5.924475</ele>
        <time>2022-06-06T14:39:23.365Z</time>
      </trkpt>
      <trkpt lat="47.86428" lon="-4.08922">
        <ele>5.913482</ele>
        <time>2022-06-06T14:39:23.545Z</time>
      </trkpt>
      <trkpt lat="47.86331" lon="-4.09071">
        <ele>6.148059</ele>
        <time>2022-06-06T14:40:01.000Z</time>
      </trkpt>
      <trkpt lat="47.86265" lon="-4.09222">
        <ele>7.373536</ele>
        <time>2022-06-06T14:40:41.036Z</time>
      </trkpt>
      <trkpt lat="47.86256" lon="-4.09249">
        <ele>7.574518</ele>
        <time>2022-06-06T14:40:48.082Z</time>
      </trkpt>
      <trkpt lat="47.86256" lon="-4.09336">
        <ele>8.154046</ele>
        <time>2022-06-06T14:41:08.020Z</time>
      </trkpt>
      <trkpt lat="47.86252" lon="-4.09358">
        <ele>8.306956</ele>
        <time>2022-06-06T14:41:12.632Z</time>
      </trkpt>
      <trkpt lat="47.86251" lon="-4.09363">
        <ele>8.342003</ele>
        <time>2022-06-06T14:41:13.799Z</time>
      </trkpt>
      <trkpt lat="47.86288" lon="-4.09361">
        <ele>8.70282</ele>
        <time>2022-06-06T14:41:23.511Z</time>
      </trkpt>
      <trkpt lat="47.86306" lon="-4.0941">
        <ele>8.882753</ele>
        <time>2022-06-06T14:41:32.686Z</time>
      </trkpt>
      <trkpt lat="47.86289" lon="-4.09435">
        <ele>8.715404</ele>
        <time>2022-06-06T14:41:39.644Z</time>
      </trkpt>
      <trkpt lat="47.86274" lon="-4.09474">
        <ele>8.497134</ele>
        <time>2022-06-06T14:41:48.749Z</time>
      </trkpt>
      <trkpt lat="47.8626" lon="-4.09542">
        <ele>8.153046</ele>
        <time>2022-06-06T14:42:02.985Z</time>
      </trkpt>
      <trkpt lat="47.8625" lon="-4.09576">
        <ele>7.974432</ele>
        <time>2022-06-06T14:42:10.311Z</time>
      </trkpt>
      <trkpt lat="47.86249" lon="-4.09649">
        <ele>7.620098</ele>
        <time>2022-06-06T14:42:24.293Z</time>
      </trkpt>
      <trkpt lat="47.86326" lon="-4.09811">
        <ele>6.658485</ele>
        <time>2022-06-06T14:42:50.031Z</time>
      </trkpt>
      <trkpt lat="47.8635" lon="-4.09881">
        <ele>6.281865</ele>
        <time>2022-06-06T14:43:01.422Z</time>
      </trkpt>
      <trkpt lat="47.86404" lon="-4.09889">
        <ele>5.927645</ele>
        <time>2022-06-06T14:43:12.445Z</time>
      </trkpt>
      <trkpt lat="47.86441" lon="-4.09907">
        <ele>5.675111</ele>
        <time>2022-06-06T14:43:20.059Z</time>
      </trkpt>
      <trkpt lat="47.86482" lon="-4.09948">
        <ele>5.357441</ele>
        <time>2022-06-06T14:43:29.384Z</time>
      </trkpt>
      <trkpt lat="47.86505" lon="-4.09979">
        <ele>5.189434</ele>
        <time>2022-06-06T14:43:35.284Z</time>
      </trkpt>
      <trkpt lat="47.86535" lon="-4.10048">
        <ele>5.148923</ele>
        <time>2022-06-06T14:43:46.007Z</time>
      </trkpt>
      <trkpt lat="47.86572" lon="-4.10098">
        <ele>5.112416</ele>
        <time>2022-06-06T14:43:56.458Z</time>
      </trkpt>
      <trkpt lat="47.86604" lon="-4.10148">
        <ele>5.077846</ele>
        <time>2022-06-06T14:44:06.970Z</time>
      </trkpt>
      <trkpt lat="47.8664" lon="-4.10174">
        <ele>5.184838</ele>
        <time>2022-06-06T14:44:17.995Z</time>
      </trkpt>
      <trkpt lat="47.86672" lon="-4.10197">
        <ele>5.421432</ele>
        <time>2022-06-06T14:44:27.708Z</time>
      </trkpt>
      <trkpt lat="47.86706" lon="-4.10196">
        <ele>5.651434</ele>
        <time>2022-06-06T14:44:36.608Z</time>
      </trkpt>
      <trkpt lat="47.86719" lon="-4.10184">
        <ele>5.752191</ele>
        <time>2022-06-06T14:44:39.870Z</time>
      </trkpt>
      <trkpt lat="47.86739" lon="-4.10144">
        <ele>5.976586</ele>
        <time>2022-06-06T14:44:48.675Z</time>
      </trkpt>
      <trkpt lat="47.86753" lon="-4.10131">
        <ele>6.084139</ele>
        <time>2022-06-06T14:44:53.559Z</time>
      </trkpt>
      <trkpt lat="47.86802" lon="-4.10114">
        <ele>6.10414</ele>
        <time>2022-06-06T14:45:04.228Z</time>
      </trkpt>
      <trkpt lat="47.8684" lon="-4.10077">
        <ele>5.769405</ele>
        <time>2022-06-06T14:45:12.915Z</time>
      </trkpt>
      <trkpt lat="47.86839" lon="-4.10076">
        <ele>5.762009</ele>
        <time>2022-06-06T14:45:13.211Z</time>
      </trkpt>
      <trkpt lat="47.86837" lon="-4.10072">
        <ele>5.739054</ele>
        <time>2022-06-06T14:45:13.920Z</time>
      </trkpt>
      <trkpt lat="47.86835" lon="-4.10067">
        <ele>5.710746</ele>
        <time>2022-06-06T14:45:14.865Z</time>
      </trkpt>
      <trkpt lat="47.8684" lon="-4.10051">
        <ele>5.623793</ele>
        <time>2022-06-06T14:45:16.981Z</time>
      </trkpt>
      <trkpt lat="47.86838" lon="-4.10044">
        <ele>5.585948</ele>
        <time>2022-06-06T14:45:17.901Z</time>
      </trkpt>
      <trkpt lat="47.86841" lon="-4.10033">
        <ele>5.528628</ele>
        <time>2022-06-06T14:45:19.162Z</time>
      </trkpt>
      <trkpt lat="47.86848" lon="-4.10029">
        <ele>5.472787</ele>
        <time>2022-06-06T14:45:20.800Z</time>
      </trkpt>
      <trkpt lat="47.86854" lon="-4.10033">
        <ele>5.421835</ele>
        <time>2022-06-06T14:45:22.463Z</time>
      </trkpt>
      <trkpt lat="47.86882" lon="-4.10044">
        <ele>5.208229</ele>
        <time>2022-06-06T14:45:27.336Z</time>
      </trkpt>
      <trkpt lat="47.86911" lon="-4.10054">
        <ele>4.988902</ele>
        <time>2022-06-06T14:45:32.427Z</time>
      </trkpt>
      <trkpt lat="47.86945" lon="-4.10077">
        <ele>4.766602</ele>
        <time>2022-06-06T14:45:38.846Z</time>
      </trkpt>
      <trkpt lat="47.87036" lon="-4.1014">
        <ele>4.187295</ele>
        <time>2022-06-06T14:45:58.044Z</time>
      </trkpt>
      <trkpt lat="47.87054" lon="-4.10156">
        <ele>4.06368</ele>
        <time>2022-06-06T14:46:02.363Z</time>
      </trkpt>
      <trkpt lat="47.8706" lon="-4.10163">
        <ele>4.020159</ele>
        <time>2022-06-06T14:46:03.732Z</time>
      </trkpt>
      <trkpt lat="47.87066" lon="-4.10171">
        <ele>3.974897</ele>
        <time>2022-06-06T14:46:05.169Z</time>
      </trkpt>
      <trkpt lat="47.8709" lon="-4.10208">
        <ele>3.900363</ele>
        <time>2022-06-06T14:46:11.511Z</time>
      </trkpt>
      <trkpt lat="47.87117" lon="-4.10258">
        <ele>3.882458</ele>
        <time>2022-06-06T14:46:19.526Z</time>
      </trkpt>
      <trkpt lat="47.87135" lon="-4.10308">
        <ele>3.866226</ele>
        <time>2022-06-06T14:46:26.750Z</time>
      </trkpt>
      <trkpt lat="47.87152" lon="-4.10381">
        <ele>3.84415</ele>
        <time>2022-06-06T14:46:36.518Z</time>
      </trkpt>
      <trkpt lat="47.87156" lon="-4.104">
        <ele>3.838618</ele>
        <time>2022-06-06T14:46:39.278Z</time>
      </trkpt>
      <trkpt lat="47.87166" lon="-4.10405">
        <ele>3.838043</ele>
        <time>2022-06-06T14:46:41.800Z</time>
      </trkpt>
      <trkpt lat="47.87168" lon="-4.10417">
        <ele>3.926018</ele>
        <time>2022-06-06T14:46:43.310Z</time>
      </trkpt>
      <trkpt lat="47.87161" lon="-4.10428">
        <ele>4.038385</ele>
        <time>2022-06-06T14:46:45.141Z</time>
      </trkpt>
      <trkpt lat="47.87163" lon="-4.10444">
        <ele>4.161923</ele>
        <time>2022-06-06T14:46:47.790Z</time>
      </trkpt>
      <trkpt lat="47.87186" lon="-4.10589">
        <ele>5.281906</ele>
        <time>2022-06-06T14:47:10.122Z</time>
      </trkpt>
      <trkpt lat="47.8722" lon="-4.10682">
        <ele>6.156453</ele>
        <time>2022-06-06T14:47:32.891Z</time>
      </trkpt>
      <trkpt lat="47.87272" lon="-4.10759">
        <ele>7.238412</ele>
        <time>2022-06-06T14:47:55.687Z</time>
      </trkpt>
      <trkpt lat="47.87311" lon="-4.10806">
        <ele>7.967969</ele>
        <time>2022-06-06T14:48:09.245Z</time>
      </trkpt>
      <trkpt lat="47.87322" lon="-4.10833">
        <ele>8.281319</ele>
        <time>2022-06-06T14:48:13.229Z</time>
      </trkpt>
      <trkpt lat="47.87293" lon="-4.10896">
        <ele>7.898362</ele>
        <time>2022-06-06T14:48:22.391Z</time>
      </trkpt>
      <trkpt lat="47.87276" lon="-4.10919">
        <ele>7.515392</ele>
        <time>2022-06-06T14:48:26.201Z</time>
      </trkpt>
      <trkpt lat="47.87267" lon="-4.10931">
        <ele>7.308746</ele>
        <time>2022-06-06T14:48:28.192Z</time>
      </trkpt>
      <trkpt lat="47.87232" lon="-4.10971">
        <ele>6.570397</ele>
        <time>2022-06-06T14:48:35.143Z</time>
      </trkpt>
      <trkpt lat="47.87213" lon="-4.10965">
        <ele>6.250836</ele>
        <time>2022-06-06T14:48:37.832Z</time>
      </trkpt>
      <trkpt lat="47.87185" lon="-4.10945">
        <ele>5.732464</ele>
        <time>2022-06-06T14:48:42.399Z</time>
      </trkpt>
      <trkpt lat="47.87164" lon="-4.10948">
        <ele>5.415146</ele>
        <time>2022-06-06T14:48:45.619Z</time>
      </trkpt>
      <trkpt lat="47.87154" lon="-4.10963">
        <ele>5.244178</ele>
        <time>2022-06-06T14:48:47.649Z</time>
      </trkpt>
      <trkpt lat="47.87145" lon="-4.11023">
        <ele>4.752929</ele>
        <time>2022-06-06T14:48:53.881Z</time>
      </trkpt>
      <trkpt lat="47.87152" lon="-4.11061">
        <ele>4.437695</ele>
        <time>2022-06-06T14:48:58.238Z</time>
      </trkpt>
      <trkpt lat="47.87164" lon="-4.11081">
        <ele>4.220399</ele>
        <time>2022-06-06T14:49:01.273Z</time>
      </trkpt>
      <trkpt lat="47.87196" lon="-4.11109">
        <ele>3.780884</ele>
        <time>2022-06-06T14:49:08.640Z</time>
      </trkpt>
      <trkpt lat="47.87252" lon="-4.11139">
        <ele>3.536023</ele>
        <time>2022-06-06T14:49:21.175Z</time>
      </trkpt>
      <trkpt lat="47.87273" lon="-4.11157">
        <ele>3.717882</ele>
        <time>2022-06-06T14:49:26.686Z</time>
      </trkpt>
      <trkpt lat="47.87274" lon="-4.11157">
        <ele>3.724667</ele>
        <time>2022-06-06T14:49:26.859Z</time>
      </trkpt>
      <trkpt lat="47.87284" lon="-4.11174">
        <ele>3.839959</ele>
        <time>2022-06-06T14:49:30.762Z</time>
      </trkpt>
      <trkpt lat="47.87328" lon="-4.11266">
        <ele>4.417202</ele>
        <time>2022-06-06T14:49:50.553Z</time>
      </trkpt>
      <trkpt lat="47.87377" lon="-4.11358">
        <ele>4.994425</ele>
        <time>2022-06-06T14:50:09.674Z</time>
      </trkpt>
      <trkpt lat="47.87412" lon="-4.1138">
        <ele>5.273237</ele>
        <time>2022-06-06T14:50:18.597Z</time>
      </trkpt>
      <trkpt lat="47.87459" lon="-4.11448">
        <ele>5.747091</ele>
        <time>2022-06-06T14:50:33.695Z</time>
      </trkpt>
      <trkpt lat="47.87481" lon="-4.11471">
        <ele>5.940603</ele>
        <time>2022-06-06T14:50:39.807Z</time>
      </trkpt>
      <trkpt lat="47.87501" lon="-4.11476">
        <ele>6.079405</ele>
        <time>2022-06-06T14:50:45.220Z</time>
      </trkpt>
      <trkpt lat="47.87531" lon="-4.11497">
        <ele>6.295261</ele>
        <time>2022-06-06T14:50:53.423Z</time>
      </trkpt>
      <trkpt lat="47.87604" lon="-4.11566">
        <ele>6.861563</ele>
        <time>2022-06-06T14:51:12.956Z</time>
      </trkpt>
      <trkpt lat="47.87616" lon="-4.1157">
        <ele>6.945039</ele>
        <time>2022-06-06T14:51:15.768Z</time>
      </trkpt>
      <trkpt lat="47.87641" lon="-4.11567">
        <ele>7.10924</ele>
        <time>2022-06-06T14:51:21.264Z</time>
      </trkpt>
      <trkpt lat="47.87645" lon="-4.11566">
        <ele>7.134007</ele>
        <time>2022-06-06T14:51:21.968Z</time>
      </trkpt>
      <trkpt lat="47.87707" lon="-4.11553">
        <ele>7.059541</ele>
        <time>2022-06-06T14:51:35.155Z</time>
      </trkpt>
      <trkpt lat="47.87747" lon="-4.11547">
        <ele>6.958245</ele>
        <time>2022-06-06T14:51:42.987Z</time>
      </trkpt>
      <trkpt lat="47.87751" lon="-4.11557">
        <ele>6.93911</ele>
        <time>2022-06-06T14:51:44.410Z</time>
      </trkpt>
      <trkpt lat="47.87772" lon="-4.11565">
        <ele>6.884542</ele>
        <time>2022-06-06T14:51:48.522Z</time>
      </trkpt>
      <trkpt lat="47.87826" lon="-4.116">
        <ele>6.760876</ele>
        <time>2022-06-06T14:51:58.860Z</time>
      </trkpt>
      <trkpt lat="47.87846" lon="-4.11623">
        <ele>6.88561</ele>
        <time>2022-06-06T14:52:03.551Z</time>
      </trkpt>
      <trkpt lat="47.87852" lon="-4.11631">
        <ele>6.923552</ele>
        <time>2022-06-06T14:52:05.277Z</time>
      </trkpt>
      <trkpt lat="47.8786" lon="-4.11643">
        <ele>6.979062</ele>
        <time>2022-06-06T14:52:08.182Z</time>
      </trkpt>
      <trkpt lat="47.87873" lon="-4.11665">
        <ele>7.076529</ele>
        <time>2022-06-06T14:52:12.632Z</time>
      </trkpt>
      <trkpt lat="47.87874" lon="-4.11667">
        <ele>7.086265</ele>
        <time>2022-06-06T14:52:13.974Z</time>
      </trkpt>
      <trkpt lat="47.87906" lon="-4.11724">
        <ele>7.332149</ele>
        <time>2022-06-06T14:52:48.504Z</time>
      </trkpt>
      <trkpt lat="47.87929" lon="-4.11749">
        <ele>7.473468</ele>
        <time>2022-06-06T14:53:08.340Z</time>
      </trkpt>
      <trkpt lat="47.87942" lon="-4.11739">
        <ele>7.546076</ele>
        <time>2022-06-06T14:53:18.516Z</time>
      </trkpt>
      <trkpt lat="47.87954" lon="-4.11692">
        <ele>7.774061</ele>
        <time>2022-06-06T14:53:31.222Z</time>
      </trkpt>
      <trkpt lat="47.87968" lon="-4.1167">
        <ele>7.953871</ele>
        <time>2022-06-06T14:53:38.961Z</time>
      </trkpt>
      <trkpt lat="47.8798" lon="-4.11656">
        <ele>8.088833</ele>
        <time>2022-06-06T14:53:44.786Z</time>
      </trkpt>
      <trkpt lat="47.88013" lon="-4.11609">
        <ele>8.500053</ele>
        <time>2022-06-06T14:54:03.148Z</time>
      </trkpt>
      <trkpt lat="47.88028" lon="-4.11597">
        <ele>8.6495</ele>
        <time>2022-06-06T14:54:09.498Z</time>
      </trkpt>
      <trkpt lat="47.88049" lon="-4.11588">
        <ele>8.843569</ele>
        <time>2022-06-06T14:54:17.487Z</time>
      </trkpt>
      <trkpt lat="47.88095" lon="-4.11589">
        <ele>9.208637</ele>
        <time>2022-06-06T14:54:33.169Z</time>
      </trkpt>
      <trkpt lat="47.88136" lon="-4.11572">
        <ele>8.547019</ele>
        <time>2022-06-06T14:54:45.874Z</time>
      </trkpt>
      <trkpt lat="47.8815" lon="-4.11558">
        <ele>8.288179</ele>
        <time>2022-06-06T14:54:50.223Z</time>
      </trkpt>
      <trkpt lat="47.88182" lon="-4.11524">
        <ele>7.674854</ele>
        <time>2022-06-06T14:55:00.793Z</time>
      </trkpt>
      <trkpt lat="47.88232" lon="-4.11464">
        <ele>6.673196</ele>
        <time>2022-06-06T14:55:18.131Z</time>
      </trkpt>
      <trkpt lat="47.88239" lon="-4.1143">
        <ele>6.442069</ele>
        <time>2022-06-06T14:55:25.061Z</time>
      </trkpt>
      <trkpt lat="47.88248" lon="-4.1142">
        <ele>6.444855</ele>
        <time>2022-06-06T14:55:28.031Z</time>
      </trkpt>
      <trkpt lat="47.88253" lon="-4.1135">
        <ele>6.456334</ele>
        <time>2022-06-06T14:55:42.485Z</time>
      </trkpt>
      <trkpt lat="47.88276" lon="-4.11247">
        <ele>6.473864</ele>
        <time>2022-06-06T14:56:07.862Z</time>
      </trkpt>
      <trkpt lat="47.88273" lon="-4.11228">
        <ele>6.477077</ele>
        <time>2022-06-06T14:56:12.808Z</time>
      </trkpt>
      <trkpt lat="47.88257" lon="-4.11196">
        <ele>6.483571</ele>
        <time>2022-06-06T14:56:21.926Z</time>
      </trkpt>
      <trkpt lat="47.88209" lon="-4.11134">
        <ele>7.311517</ele>
        <time>2022-06-06T14:56:46.624Z</time>
      </trkpt>
      <trkpt lat="47.88204" lon="-4.10994">
        <ele>8.538577</ele>
        <time>2022-06-06T14:57:24.652Z</time>
      </trkpt>
      <trkpt lat="47.88191" lon="-4.10913">
        <ele>8.911076</ele>
        <time>2022-06-06T14:57:44.478Z</time>
      </trkpt>
      <trkpt lat="47.88178" lon="-4.10889">
        <ele>8.957358</ele>
        <time>2022-06-06T14:57:50.759Z</time>
      </trkpt>
      <trkpt lat="47.8815" lon="-4.10874">
        <ele>9.025454</ele>
        <time>2022-06-06T14:58:00.214Z</time>
      </trkpt>
      <trkpt lat="47.88146" lon="-4.10839">
        <ele>9.079642</ele>
        <time>2022-06-06T14:58:07.625Z</time>
      </trkpt>
      <trkpt lat="47.8815" lon="-4.10802">
        <ele>9.137794</ele>
        <time>2022-06-06T14:58:15.673Z</time>
      </trkpt>
      <trkpt lat="47.88159" lon="-4.10756">
        <ele>9.210897</ele>
        <time>2022-06-06T14:58:25.759Z</time>
      </trkpt>
      <trkpt lat="47.88149" lon="-4.10719">
        <ele>9.308642</ele>
        <time>2022-06-06T14:58:34.371Z</time>
      </trkpt>
      <trkpt lat="47.88123" lon="-4.10673">
        <ele>9.537164</ele>
        <time>2022-06-06T14:58:47.999Z</time>
      </trkpt>
      <trkpt lat="47.88115" lon="-4.1063">
        <ele>9.700296</ele>
        <time>2022-06-06T14:58:57.575Z</time>
      </trkpt>
      <trkpt lat="47.88097" lon="-4.10607">
        <ele>9.835337</ele>
        <time>2022-06-06T14:59:05.797Z</time>
      </trkpt>
      <trkpt lat="47.88083" lon="-4.10606">
        <ele>9.91187</ele>
        <time>2022-06-06T14:59:10.371Z</time>
      </trkpt>
      <trkpt lat="47.88078" lon="-4.10599">
        <ele>9.95255</ele>
        <time>2022-06-06T14:59:12.867Z</time>
      </trkpt>
      <trkpt lat="47.88078" lon="-4.10595">
        <ele>9.964159</ele>
        <time>2022-06-06T14:59:13.586Z</time>
      </trkpt>
      <trkpt lat="47.88079" lon="-4.10561">
        <ele>10.093374</ele>
        <time>2022-06-06T14:59:22.304Z</time>
      </trkpt>
      <trkpt lat="47.88087" lon="-4.10545">
        <ele>10.167514</ele>
        <time>2022-06-06T14:59:27.261Z</time>
      </trkpt>
      <trkpt lat="47.88087" lon="-4.10536">
        <ele>10.201612</ele>
        <time>2022-06-06T14:59:29.569Z</time>
      </trkpt>
      <trkpt lat="47.88087" lon="-4.10528">
        <ele>10.231219</ele>
        <time>2022-06-06T14:59:33.283Z</time>
      </trkpt>
      <trkpt lat="47.88069" lon="-4.10529">
        <ele>10.507533</ele>
        <time>2022-06-06T14:59:37.761Z</time>
      </trkpt>
      <trkpt lat="47.88051" lon="-4.10541">
        <ele>10.861864</ele>
        <time>2022-06-06T14:59:42.902Z</time>
      </trkpt>
      <trkpt lat="47.87996" lon="-4.10592">
        <ele>12.025794</ele>
        <time>2022-06-06T15:00:00.095Z</time>
      </trkpt>
      <trkpt lat="47.87992" lon="-4.1058">
        <ele>12.193551</ele>
        <time>2022-06-06T15:00:02.839Z</time>
      </trkpt>
      <trkpt lat="47.88007" lon="-4.10356">
        <ele>15.659926</ele>
        <time>2022-06-06T15:00:51.725Z</time>
      </trkpt>
      <trkpt lat="47.87975" lon="-4.10355">
        <ele>16.54204</ele>
        <time>2022-06-06T15:01:02.780Z</time>
      </trkpt>
      <trkpt lat="47.87975" lon="-4.10327">
        <ele>17.053561</ele>
        <time>2022-06-06T15:01:09.749Z</time>
      </trkpt>
      <trkpt lat="47.8797" lon="-4.10314">
        <ele>17.345675</ele>
        <time>2022-06-06T15:01:12.916Z</time>
      </trkpt>
      <trkpt lat="47.879" lon="-4.10269">
        <ele>19.246534</ele>
        <time>2022-06-06T15:01:39.436Z</time>
      </trkpt>
      <trkpt lat="47.879" lon="-4.10232">
        <ele>19.794827</ele>
        <time>2022-06-06T15:01:48.890Z</time>
      </trkpt>
      <trkpt lat="47.8789" lon="-4.10211">
        <ele>20.175155</ele>
        <time>2022-06-06T15:01:54.446Z</time>
      </trkpt>
      <trkpt lat="47.87875" lon="-4.1019">
        <ele>20.636257</ele>
        <time>2022-06-06T15:02:01.682Z</time>
      </trkpt>
      <trkpt lat="47.87831" lon="-4.10165">
        <ele>21.685399</ele>
        <time>2022-06-06T15:02:15.170Z</time>
      </trkpt>
      <trkpt lat="47.87826" lon="-4.10143">
        <ele>22.029641</ele>
        <time>2022-06-06T15:02:19.559Z</time>
      </trkpt>
      <trkpt lat="47.87825" lon="-4.10128">
        <ele>22.260617</ele>
        <time>2022-06-06T15:02:23.344Z</time>
      </trkpt>
      <trkpt lat="47.87774" lon="-4.10126">
        <ele>22.694669</ele>
        <time>2022-06-06T15:02:41.517Z</time>
      </trkpt>
      <trkpt lat="47.87749" lon="-4.10066">
        <ele>22.993812</ele>
        <time>2022-06-06T15:02:52.798Z</time>
      </trkpt>
      <trkpt lat="47.87737" lon="-4.10057">
        <ele>23.070889</ele>
        <time>2022-06-06T15:02:55.459Z</time>
      </trkpt>
      <trkpt lat="47.87733" lon="-4.1006">
        <ele>23.102804</ele>
        <time>2022-06-06T15:02:56.612Z</time>
      </trkpt>
      <trkpt lat="47.87724" lon="-4.10052">
        <ele>23.168329</ele>
        <time>2022-06-06T15:02:59.262Z</time>
      </trkpt>
      <trkpt lat="47.87726" lon="-4.10037">
        <ele>23.233631</ele>
        <time>2022-06-06T15:03:01.755Z</time>
      </trkpt>
      <trkpt lat="47.8773" lon="-4.10006">
        <ele>23.364904</ele>
        <time>2022-06-06T15:03:06.113Z</time>
      </trkpt>
      <trkpt lat="47.87724" lon="-4.09933">
        <ele>23.420069</ele>
        <time>2022-06-06T15:03:15.409Z</time>
      </trkpt>
      <trkpt lat="47.87718" lon="-4.09829">
        <ele>22.991604</ele>
        <time>2022-06-06T15:03:28.210Z</time>
      </trkpt>
      <trkpt lat="47.87722" lon="-4.09664">
        <ele>22.094823</ele>
        <time>2022-06-06T15:03:46.990Z</time>
      </trkpt>
      <trkpt lat="47.87723" lon="-4.09644">
        <ele>21.867598</ele>
        <time>2022-06-06T15:03:49.145Z</time>
      </trkpt>
      <trkpt lat="47.87726" lon="-4.09574">
        <ele>21.086831</ele>
        <time>2022-06-06T15:03:56.439Z</time>
      </trkpt>
      <trkpt lat="47.8773" lon="-4.09489">
        <ele>20.140652</ele>
        <time>2022-06-06T15:04:05.294Z</time>
      </trkpt>
      <trkpt lat="47.87724" lon="-4.0948">
        <ele>19.992062</ele>
        <time>2022-06-06T15:04:06.703Z</time>
      </trkpt>
      <trkpt lat="47.87724" lon="-4.09477">
        <ele>19.960818</ele>
        <time>2022-06-06T15:04:07.002Z</time>
      </trkpt>
      <trkpt lat="47.87729" lon="-4.0947">
        <ele>19.839846</ele>
        <time>2022-06-06T15:04:08.152Z</time>
      </trkpt>
      <trkpt lat="47.87723" lon="-4.09414">
        <ele>19.294011</ele>
        <time>2022-06-06T15:04:14.165Z</time>
      </trkpt>
      <trkpt lat="47.87721" lon="-4.09372">
        <ele>18.989423</ele>
        <time>2022-06-06T15:04:18.697Z</time>
      </trkpt>
      <trkpt lat="47.87715" lon="-4.09246">
        <ele>18.077484</ele>
        <time>2022-06-06T15:04:32.824Z</time>
      </trkpt>
      <trkpt lat="47.87713" lon="-4.09196">
        <ele>17.714517</ele>
        <time>2022-06-06T15:04:38.665Z</time>
      </trkpt>
      <trkpt lat="47.87708" lon="-4.09084">
        <ele>17.310954</ele>
        <time>2022-06-06T15:04:52.333Z</time>
      </trkpt>
      <trkpt lat="47.87709" lon="-4.09046">
        <ele>17.218366</ele>
        <time>2022-06-06T15:04:57.126Z</time>
      </trkpt>
      <trkpt lat="47.87719" lon="-4.08959">
        <ele>17.004667</ele>
        <time>2022-06-06T15:05:08.238Z</time>
      </trkpt>
      <trkpt lat="47.87761" lon="-4.08803">
        <ele>16.155698</ele>
        <time>2022-06-06T15:05:28.382Z</time>
      </trkpt>
      <trkpt lat="47.87756" lon="-4.08791">
        <ele>16.061879</ele>
        <time>2022-06-06T15:05:30.013Z</time>
      </trkpt>
      <trkpt lat="47.87756" lon="-4.08788">
        <ele>16.038913</ele>
        <time>2022-06-06T15:05:30.433Z</time>
      </trkpt>
      <trkpt lat="47.87766" lon="-4.08781">
        <ele>15.933397</ele>
        <time>2022-06-06T15:05:32.424Z</time>
      </trkpt>
      <trkpt lat="47.87775" lon="-4.08732">
        <ele>15.606114</ele>
        <time>2022-06-06T15:05:38.166Z</time>
      </trkpt>
      <trkpt lat="47.87779" lon="-4.08679">
        <ele>15.265743</ele>
        <time>2022-06-06T15:05:43.864Z</time>
      </trkpt>
      <trkpt lat="47.87776" lon="-4.0855">
        <ele>13.786434</ele>
        <time>2022-06-06T15:05:57.496Z</time>
      </trkpt>
      <trkpt lat="47.87773" lon="-4.08516">
        <ele>13.36502</ele>
        <time>2022-06-06T15:06:01.068Z</time>
      </trkpt>
      <trkpt lat="47.87767" lon="-4.08449">
        <ele>12.53981</ele>
        <time>2022-06-06T15:06:08.145Z</time>
      </trkpt>
      <trkpt lat="47.87767" lon="-4.08394">
        <ele>11.85538</ele>
        <time>2022-06-06T15:06:13.999Z</time>
      </trkpt>
      <trkpt lat="47.87784" lon="-4.08139">
        <ele>8.607492</ele>
        <time>2022-06-06T15:06:40.485Z</time>
      </trkpt>
      <trkpt lat="47.87799" lon="-4.08008">
        <ele>8.157989</ele>
        <time>2022-06-06T15:06:55.141Z</time>
      </trkpt>
      <trkpt lat="47.87804" lon="-4.07946">
        <ele>8.009729</ele>
        <time>2022-06-06T15:07:02.658Z</time>
      </trkpt>
      <trkpt lat="47.87796" lon="-4.07833">
        <ele>8.323746</ele>
        <time>2022-06-06T15:07:19.915Z</time>
      </trkpt>
      <trkpt lat="47.87795" lon="-4.07829">
        <ele>8.395176</ele>
        <time>2022-06-06T15:07:20.687Z</time>
      </trkpt>
      <trkpt lat="47.87788" lon="-4.07793">
        <ele>9.082245</ele>
        <time>2022-06-06T15:07:28.707Z</time>
      </trkpt>
      <trkpt lat="47.87785" lon="-4.07784">
        <ele>9.261159</ele>
        <time>2022-06-06T15:07:30.951Z</time>
      </trkpt>
      <trkpt lat="47.87758" lon="-4.0768">
        <ele>11.298808</ele>
        <time>2022-06-06T15:07:57.217Z</time>
      </trkpt>
      <trkpt lat="47.87753" lon="-4.07658">
        <ele>11.723853</ele>
        <time>2022-06-06T15:08:02.700Z</time>
      </trkpt>
      <trkpt lat="47.87742" lon="-4.07585">
        <ele>13.151901</ele>
        <time>2022-06-06T15:08:21.777Z</time>
      </trkpt>
      <trkpt lat="47.87737" lon="-4.07515">
        <ele>14.572776</ele>
        <time>2022-06-06T15:08:39.090Z</time>
      </trkpt>
      <trkpt lat="47.87729" lon="-4.07314">
        <ele>18.413064</ele>
        <time>2022-06-06T15:09:25.215Z</time>
      </trkpt>
      <trkpt lat="47.87711" lon="-4.07196">
        <ele>19.502899</ele>
        <time>2022-06-06T15:09:46.581Z</time>
      </trkpt>
      <trkpt lat="47.87698" lon="-4.07141">
        <ele>20.034989</ele>
        <time>2022-06-06T15:09:56.244Z</time>
      </trkpt>
      <trkpt lat="47.87689" lon="-4.07142">
        <ele>20.160198</ele>
        <time>2022-06-06T15:09:58.306Z</time>
      </trkpt>
      <trkpt lat="47.87683" lon="-4.07132">
        <ele>20.284899</ele>
        <time>2022-06-06T15:10:00.493Z</time>
      </trkpt>
      <trkpt lat="47.8764" lon="-4.07202">
        <ele>20.375278</ele>
        <time>2022-06-06T15:10:14.145Z</time>
      </trkpt>
      <trkpt lat="47.87574" lon="-4.07234">
        <ele>19.945659</ele>
        <time>2022-06-06T15:10:27.154Z</time>
      </trkpt>
      <trkpt lat="47.87557" lon="-4.07218">
        <ele>19.818093</ele>
        <time>2022-06-06T15:10:30.854Z</time>
      </trkpt>
      <trkpt lat="47.87399" lon="-4.07113">
        <ele>17.69991</ele>
        <time>2022-06-06T15:11:00.695Z</time>
      </trkpt>
      <trkpt lat="47.87303" lon="-4.07053">
        <ele>16.128928</ele>
        <time>2022-06-06T15:11:18.192Z</time>
      </trkpt>
      <trkpt lat="47.87283" lon="-4.07036">
        <ele>15.791342</ele>
        <time>2022-06-06T15:11:21.958Z</time>
      </trkpt>
      <trkpt lat="47.87267" lon="-4.07021">
        <ele>15.504008</ele>
        <time>2022-06-06T15:11:25.209Z</time>
      </trkpt>
      <trkpt lat="47.87261" lon="-4.07015">
        <ele>15.391287</ele>
        <time>2022-06-06T15:11:26.495Z</time>
      </trkpt>
      <trkpt lat="47.87225" lon="-4.06964">
        <ele>14.64543</ele>
        <time>2022-06-06T15:11:34.889Z</time>
      </trkpt>
      <trkpt lat="47.87188" lon="-4.06879">
        <ele>13.872237</ele>
        <time>2022-06-06T15:11:46.829Z</time>
      </trkpt>
      <trkpt lat="47.87134" lon="-4.06715">
        <ele>12.987358</ele>
        <time>2022-06-06T15:12:09.694Z</time>
      </trkpt>
      <trkpt lat="47.87132" lon="-4.06708">
        <ele>12.951797</ele>
        <time>2022-06-06T15:12:10.657Z</time>
      </trkpt>
      <trkpt lat="47.87118" lon="-4.06656">
        <ele>12.720997</ele>
        <time>2022-06-06T15:12:17.957Z</time>
      </trkpt>
      <trkpt lat="47.87083" lon="-4.06556">
        <ele>12.347288</ele>
        <time>2022-06-06T15:12:32.488Z</time>
      </trkpt>
      <trkpt lat="47.87046" lon="-4.06472">
        <ele>12.016344</ele>
        <time>2022-06-06T15:12:45.282Z</time>
      </trkpt>
      <trkpt lat="47.87057" lon="-4.06422">
        <ele>11.913013</ele>
        <time>2022-06-06T15:12:51.144Z</time>
      </trkpt>
      <trkpt lat="47.87071" lon="-4.06299">
        <ele>11.843164</ele>
        <time>2022-06-06T15:13:06.528Z</time>
      </trkpt>
      <trkpt lat="47.87083" lon="-4.06264">
        <ele>11.821359</ele>
        <time>2022-06-06T15:13:11.396Z</time>
      </trkpt>
      <trkpt lat="47.8708" lon="-4.0626">
        <ele>11.818434</ele>
        <time>2022-06-06T15:13:12.217Z</time>
      </trkpt>
      <trkpt lat="47.8708" lon="-4.0625">
        <ele>11.812327</ele>
        <time>2022-06-06T15:13:13.886Z</time>
      </trkpt>
      <trkpt lat="47.87081" lon="-4.06231">
        <ele>11.801898</ele>
        <time>2022-06-06T15:13:16.269Z</time>
      </trkpt>
      <trkpt lat="47.87072" lon="-4.0618">
        <ele>11.822972</ele>
        <time>2022-06-06T15:13:24.003Z</time>
      </trkpt>
      <trkpt lat="47.87072" lon="-4.06174">
        <ele>11.856687</ele>
        <time>2022-06-06T15:13:24.821Z</time>
      </trkpt>
      <trkpt lat="47.87076" lon="-4.06134">
        <ele>12.094553</ele>
        <time>2022-06-06T15:13:31.522Z</time>
      </trkpt>
      <trkpt lat="47.87097" lon="-4.06061">
        <ele>12.557475</ele>
        <time>2022-06-06T15:13:43.738Z</time>
      </trkpt>
      <trkpt lat="47.87087" lon="-4.05989">
        <ele>12.988278</ele>
        <time>2022-06-06T15:13:56.558Z</time>
      </trkpt>
      <trkpt lat="47.87092" lon="-4.05926">
        <ele>13.346204</ele>
        <time>2022-06-06T15:14:07.023Z</time>
      </trkpt>
      <trkpt lat="47.87063" lon="-4.05754">
        <ele>13.993938</ele>
        <time>2022-06-06T15:14:32.304Z</time>
      </trkpt>
      <trkpt lat="47.87027" lon="-4.05638">
        <ele>14.624667</ele>
        <time>2022-06-06T15:14:50.409Z</time>
      </trkpt>
      <trkpt lat="47.87024" lon="-4.0558">
        <ele>15.073147</ele>
        <time>2022-06-06T15:14:59.605Z</time>
      </trkpt>
      <trkpt lat="47.87026" lon="-4.05567">
        <ele>15.17885</ele>
        <time>2022-06-06T15:15:01.884Z</time>
      </trkpt>
      <trkpt lat="47.8703" lon="-4.05541">
        <ele>15.379729</ele>
        <time>2022-06-06T15:15:06.152Z</time>
      </trkpt>
      <trkpt lat="47.87038" lon="-4.05516">
        <ele>15.59694</ele>
        <time>2022-06-06T15:15:10.938Z</time>
      </trkpt>
      <trkpt lat="47.87103" lon="-4.05388">
        <ele>16.815118</ele>
        <time>2022-06-06T15:15:40.992Z</time>
      </trkpt>
      <trkpt lat="47.87116" lon="-4.05384">
        <ele>16.967249</ele>
        <time>2022-06-06T15:15:44.228Z</time>
      </trkpt>
      <trkpt lat="47.87196" lon="-4.05393">
        <ele>17.854958</ele>
        <time>2022-06-06T15:16:04.470Z</time>
      </trkpt>
      <trkpt lat="47.87209" lon="-4.05386">
        <ele>18.006586</ele>
        <time>2022-06-06T15:16:08.427Z</time>
      </trkpt>
      <trkpt lat="47.87168" lon="-4.05278">
        <ele>18.173767</ele>
        <time>2022-06-06T15:16:25.121Z</time>
      </trkpt>
      <trkpt lat="47.87098" lon="-4.05091">
        <ele>17.555691</ele>
        <time>2022-06-06T15:16:50.061Z</time>
      </trkpt>
      <trkpt lat="47.87091" lon="-4.05087">
        <ele>17.500452</ele>
        <time>2022-06-06T15:16:51.397Z</time>
      </trkpt>
      <trkpt lat="47.87058" lon="-4.04995">
        <ele>16.995916</ele>
        <time>2022-06-06T15:17:04.156Z</time>
      </trkpt>
      <trkpt lat="47.87018" lon="-4.04907">
        <ele>16.479219</ele>
        <time>2022-06-06T15:17:17.373Z</time>
      </trkpt>
      <trkpt lat="47.86972" lon="-4.04825">
        <ele>15.966715</ele>
        <time>2022-06-06T15:17:30.871Z</time>
      </trkpt>
      <trkpt lat="47.86954" lon="-4.04804">
        <ele>15.803797</ele>
        <time>2022-06-06T15:17:35.163Z</time>
      </trkpt>
      <trkpt lat="47.8689" lon="-4.04757">
        <ele>15.299301</ele>
        <time>2022-06-06T15:17:48.291Z</time>
      </trkpt>
      <trkpt lat="47.86743" lon="-4.04609">
        <ele>13.600011</ele>
        <time>2022-06-06T15:18:20.191Z</time>
      </trkpt>
      <trkpt lat="47.86616" lon="-4.04357">
        <ele>11.161785</ele>
        <time>2022-06-06T15:18:57.211Z</time>
      </trkpt>
      <trkpt lat="47.86581" lon="-4.04303">
        <ele>10.659366</ele>
        <time>2022-06-06T15:19:06.374Z</time>
      </trkpt>
      <trkpt lat="47.8643" lon="-4.04197">
        <ele>9.048548</ele>
        <time>2022-06-06T15:19:36.207Z</time>
      </trkpt>
      <trkpt lat="47.8643" lon="-4.04197">
        <ele>9.048548</ele>
        <time>2022-06-06T15:19:36.218Z</time>
      </trkpt>
      <trkpt lat="47.86336" lon="-4.04135">
        <ele>8.074792</ele>
        <time>2022-06-06T15:19:54.803Z</time>
      </trkpt>
      <trkpt lat="47.86324" lon="-4.04139">
        <ele>7.950226</ele>
        <time>2022-06-06T15:19:57.069Z</time>
      </trkpt>
      <trkpt lat="47.86324" lon="-4.0412">
        <ele>7.829973</ele>
        <time>2022-06-06T15:19:59.433Z</time>
      </trkpt>
      <trkpt lat="47.86319" lon="-4.04116">
        <ele>7.775673</ele>
        <time>2022-06-06T15:20:00.449Z</time>
      </trkpt>
      <trkpt lat="47.86312" lon="-4.0412">
        <ele>7.709926</ele>
        <time>2022-06-06T15:20:02.013Z</time>
      </trkpt>
      <trkpt lat="47.86238" lon="-4.04057">
        <ele>7.103325</ele>
        <time>2022-06-06T15:20:22.147Z</time>
      </trkpt>
      <trkpt lat="47.86243" lon="-4.04041">
        <ele>7.022237</ele>
        <time>2022-06-06T15:20:24.349Z</time>
      </trkpt>
      <trkpt lat="47.86171" lon="-4.03981">
        <ele>6.454909</ele>
        <time>2022-06-06T15:20:38.654Z</time>
      </trkpt>
      <trkpt lat="47.86161" lon="-4.03975">
        <ele>6.393976</ele>
        <time>2022-06-06T15:20:40.673Z</time>
      </trkpt>
      <trkpt lat="47.86161" lon="-4.03967">
        <ele>6.37301</ele>
        <time>2022-06-06T15:20:41.567Z</time>
      </trkpt>
      <trkpt lat="47.86171" lon="-4.0396">
        <ele>6.325611</ele>
        <time>2022-06-06T15:20:43.598Z</time>
      </trkpt>
      <trkpt lat="47.86176" lon="-4.03968">
        <ele>6.29613</ele>
        <time>2022-06-06T15:20:44.878Z</time>
      </trkpt>
      <trkpt lat="47.86331" lon="-4.03875">
        <ele>5.767626</ele>
        <time>2022-06-06T15:21:15.203Z</time>
      </trkpt>
      <trkpt lat="47.86383" lon="-4.03829">
        <ele>6.053718</ele>
        <time>2022-06-06T15:21:27.282Z</time>
      </trkpt>
      <trkpt lat="47.86388" lon="-4.03822">
        <ele>6.088089</ele>
        <time>2022-06-06T15:21:28.838Z</time>
      </trkpt>
      <trkpt lat="47.86414" lon="-4.03792">
        <ele>6.242776</ele>
        <time>2022-06-06T15:21:36.081Z</time>
      </trkpt>
      <trkpt lat="47.86426" lon="-4.03777">
        <ele>6.318978</ele>
        <time>2022-06-06T15:21:39.725Z</time>
      </trkpt>
      <trkpt lat="47.86415" lon="-4.03761">
        <ele>6.392229</ele>
        <time>2022-06-06T15:21:43.557Z</time>
      </trkpt>
      <trkpt lat="47.86355" lon="-4.03724">
        <ele>6.869607</ele>
        <time>2022-06-06T15:22:00.387Z</time>
      </trkpt>
      <trkpt lat="47.86312" lon="-4.03696">
        <ele>7.317219</ele>
        <time>2022-06-06T15:22:12.913Z</time>
      </trkpt>
      <trkpt lat="47.86294" lon="-4.03666">
        <ele>7.576704</ele>
        <time>2022-06-06T15:22:20.212Z</time>
      </trkpt>
      <trkpt lat="47.86266" lon="-4.03439">
        <ele>8.061359</ele>
        <time>2022-06-06T15:22:55.562Z</time>
      </trkpt>
      <trkpt lat="47.86257" lon="-4.03416">
        <ele>8.019868</ele>
        <time>2022-06-06T15:22:58.862Z</time>
      </trkpt>
      <trkpt lat="47.862" lon="-4.03324">
        <ele>7.76528</ele>
        <time>2022-06-06T15:23:14.318Z</time>
      </trkpt>
      <trkpt lat="47.86147" lon="-4.03196">
        <ele>6.503504</ele>
        <time>2022-06-06T15:23:31.765Z</time>
      </trkpt>
      <trkpt lat="47.86103" lon="-4.03076">
        <ele>5.447963</ele>
        <time>2022-06-06T15:23:47.669Z</time>
      </trkpt>
      <trkpt lat="47.86086" lon="-4.03049">
        <ele>5.258499</ele>
        <time>2022-06-06T15:23:52.117Z</time>
      </trkpt>
      <trkpt lat="47.86018" lon="-4.0302">
        <ele>4.728484</ele>
        <time>2022-06-06T15:24:05.010Z</time>
      </trkpt>
      <trkpt lat="47.85947" lon="-4.0296">
        <ele>4.326717</ele>
        <time>2022-06-06T15:24:20.368Z</time>
      </trkpt>
      <trkpt lat="47.85896" lon="-4.02957">
        <ele>4.635742</ele>
        <time>2022-06-06T15:24:30.974Z</time>
      </trkpt>
      <trkpt lat="47.85824" lon="-4.02909">
        <ele>5.114321</ele>
        <time>2022-06-06T15:24:50.692Z</time>
      </trkpt>
      <trkpt lat="47.85813" lon="-4.02896">
        <ele>5.198311</ele>
        <time>2022-06-06T15:24:54.374Z</time>
      </trkpt>
      <trkpt lat="47.85808" lon="-4.02866">
        <ele>5.329455</ele>
        <time>2022-06-06T15:25:00.039Z</time>
      </trkpt>
      <trkpt lat="47.85811" lon="-4.028">
        <ele>5.869088</ele>
        <time>2022-06-06T15:25:12.016Z</time>
      </trkpt>
      <trkpt lat="47.85802" lon="-4.02736">
        <ele>6.406504</ele>
        <time>2022-06-06T15:25:23.884Z</time>
      </trkpt>
      <trkpt lat="47.85795" lon="-4.02717">
        <ele>6.583202</ele>
        <time>2022-06-06T15:25:27.901Z</time>
      </trkpt>
      <trkpt lat="47.85797" lon="-4.02688">
        <ele>6.819189</ele>
        <time>2022-06-06T15:25:35.287Z</time>
      </trkpt>
      <trkpt lat="47.85799" lon="-4.02659">
        <ele>7.05844</ele>
        <time>2022-06-06T15:25:42.913Z</time>
      </trkpt>
      <trkpt lat="47.85811" lon="-4.02614">
        <ele>7.456315</ele>
        <time>2022-06-06T15:25:55.404Z</time>
      </trkpt>
      <trkpt lat="47.85808" lon="-4.02579">
        <ele>7.520224</ele>
        <time>2022-06-06T15:26:03.738Z</time>
      </trkpt>
      <trkpt lat="47.85805" lon="-4.02574">
        <ele>7.520733</ele>
        <time>2022-06-06T15:26:05.517Z</time>
      </trkpt>
      <trkpt lat="47.85732" lon="-4.02553">
        <ele>7.528277</ele>
        <time>2022-06-06T15:26:29.598Z</time>
      </trkpt>
      <trkpt lat="47.85722" lon="-4.02519">
        <ele>7.530852</ele>
        <time>2022-06-06T15:26:37.409Z</time>
      </trkpt>
      <trkpt lat="47.85723" lon="-4.02459">
        <ele>7.534896</ele>
        <time>2022-06-06T15:26:49.501Z</time>
      </trkpt>
      <trkpt lat="47.85738" lon="-4.02357">
        <ele>7.042775</ele>
        <time>2022-06-06T15:27:10.622Z</time>
      </trkpt>
      <trkpt lat="47.8575" lon="-4.02308">
        <ele>6.717416</ele>
        <time>2022-06-06T15:27:20.847Z</time>
      </trkpt>
      <trkpt lat="47.85656" lon="-4.02226">
        <ele>5.677418</ele>
        <time>2022-06-06T15:27:52.382Z</time>
      </trkpt>
      <trkpt lat="47.85628" lon="-4.02264">
        <ele>5.255937</ele>
        <time>2022-06-06T15:28:03.375Z</time>
      </trkpt>
      <trkpt lat="47.85619" lon="-4.0227">
        <ele>5.140288</ele>
        <time>2022-06-06T15:28:06.398Z</time>
      </trkpt>
      <trkpt lat="47.85537" lon="-4.02171">
        <ele>3.970755</ele>
        <time>2022-06-06T15:28:36.930Z</time>
      </trkpt>
      <trkpt lat="47.85488" lon="-4.02077">
        <ele>3.423529</ele>
        <time>2022-06-06T15:29:00.570Z</time>
      </trkpt>
      <trkpt lat="47.85464" lon="-4.02016">
        <ele>3.124106</ele>
        <time>2022-06-06T15:29:14.786Z</time>
      </trkpt>
      <trkpt lat="47.85433" lon="-4.01987">
        <ele>2.892348</ele>
        <time>2022-06-06T15:29:25.984Z</time>
      </trkpt>
      <trkpt lat="47.854" lon="-4.01969">
        <ele>2.745568</ele>
        <time>2022-06-06T15:29:36.793Z</time>
      </trkpt>
      <trkpt lat="47.85364" lon="-4.01969">
        <ele>2.781423</ele>
        <time>2022-06-06T15:29:48.196Z</time>
      </trkpt>
      <trkpt lat="47.85368" lon="-4.01953">
        <ele>2.792931</ele>
        <time>2022-06-06T15:29:52.234Z</time>
      </trkpt>
      <trkpt lat="47.85364" lon="-4.01969">
        <ele>2.80444</ele>
        <time>2022-06-06T15:29:55.774Z</time>
      </trkpt>
      <trkpt lat="47.85338" lon="-4.02038">
        <ele>2.856674</ele>
        <time>2022-06-06T15:30:13.046Z</time>
      </trkpt>
      <trkpt lat="47.85315" lon="-4.02183">
        <ele>2.985339</ele>
        <time>2022-06-06T15:30:46.280Z</time>
      </trkpt>
      <trkpt lat="47.85251" lon="-4.02418">
        <ele>3.237918</ele>
        <time>2022-06-06T15:31:41.460Z</time>
      </trkpt>
      <trkpt lat="47.85262" lon="-4.0254">
        <ele>3.295119</ele>
        <time>2022-06-06T15:32:07.671Z</time>
      </trkpt>
      <trkpt lat="47.8527" lon="-4.02568">
        <ele>3.308744</ele>
        <time>2022-06-06T15:32:13.973Z</time>
      </trkpt>
      <trkpt lat="47.85261" lon="-4.02602">
        <ele>3.325834</ele>
        <time>2022-06-06T15:32:19.067Z</time>
      </trkpt>
      <trkpt lat="47.85259" lon="-4.02649">
        <ele>3.38491</ele>
        <time>2022-06-06T15:32:25.766Z</time>
      </trkpt>
      <trkpt lat="47.85262" lon="-4.02796">
        <ele>3.770869</ele>
        <time>2022-06-06T15:32:48.851Z</time>
      </trkpt>
      <trkpt lat="47.85283" lon="-4.02929">
        <ele>4.069442</ele>
        <time>2022-06-06T15:33:10.959Z</time>
      </trkpt>
      <trkpt lat="47.85359" lon="-4.02948">
        <ele>4.155245</ele>
        <time>2022-06-06T15:33:28.675Z</time>
      </trkpt>
      <trkpt lat="47.85379" lon="-4.02953">
        <ele>4.176913</ele>
        <time>2022-06-06T15:33:32.986Z</time>
      </trkpt>
      <trkpt lat="47.853" lon="-4.03317">
        <ele>3.63062</ele>
        <time>2022-06-06T15:36:31.473Z</time>
      </trkpt>
      <trkpt lat="47.85243" lon="-4.03346">
        <ele>3.655771</ele>
        <time>2022-06-06T15:36:44.164Z</time>
      </trkpt>
      <trkpt lat="47.85135" lon="-4.03347">
        <ele>3.706791</ele>
        <time>2022-06-06T15:37:08.050Z</time>
      </trkpt>
      <trkpt lat="47.85122" lon="-4.03342">
        <ele>3.728943</ele>
        <time>2022-06-06T15:37:12.294Z</time>
      </trkpt>
      <trkpt lat="47.85103" lon="-4.03367">
        <ele>3.771206</ele>
        <time>2022-06-06T15:37:21.002Z</time>
      </trkpt>
      <trkpt lat="47.85101" lon="-4.03373">
        <ele>3.778734</ele>
        <time>2022-06-06T15:37:22.482Z</time>
      </trkpt>
      <trkpt lat="47.85085" lon="-4.03427">
        <ele>3.843927</ele>
        <time>2022-06-06T15:37:35.676Z</time>
      </trkpt>
      <trkpt lat="47.8508" lon="-4.03476">
        <ele>3.898001</ele>
        <time>2022-06-06T15:37:46.518Z</time>
      </trkpt>
      <trkpt lat="47.85084" lon="-4.03489">
        <ele>3.914704</ele>
        <time>2022-06-06T15:37:49.693Z</time>
      </trkpt>
      <trkpt lat="47.85081" lon="-4.03507">
        <ele>3.935463</ele>
        <time>2022-06-06T15:37:53.889Z</time>
      </trkpt>
      <trkpt lat="47.85082" lon="-4.03548">
        <ele>3.97988</ele>
        <time>2022-06-06T15:38:02.349Z</time>
      </trkpt>
      <trkpt lat="47.85151" lon="-4.0354">
        <ele>3.995775</ele>
        <time>2022-06-06T15:38:32.002Z</time>
      </trkpt>
      <trkpt lat="47.8522" lon="-4.03533">
        <ele>3.995775</ele>
        <time>2022-06-06T15:39:01.673Z</time>
      </trkpt>
    </trkseg>
  </trk>
</gpx>